TFM - Tactical Decision Aid
ID: Runway Winds: CIG/VIS Threshold:

KPHL - Philadelphia Intl, PA, US

Updated at: 1538 UTC 26 Apr 2019
Latest TAF at: 1509 UTC 26 Apr 2019

TAF Board

Time1516Z 26/16Z 26/17Z 26/18Z 26/19Z 26/20Z 26/21Z 26/22Z 26/23Z 27/00Z 27/01Z 27/02Z 27/03Z 27/04Z>>
Type OBS PRVL
  [TEMP]  
PRVL PRVL PRVL PRVL PRVL PRVL PRVL PRVL PRVL PRVL PRVL PRVL
VIS 10 >6
  [4]  
>6 >6 >6 >6 4 4 >6 >6 >6 >6 >6 >6
CIG 75 15
  [6]  
15 35 35 35 20 20 35 35 35 35 35 35
Cover OVC BKN
  [OVC]  
OVC BKN BKN BKN OVC OVC BKN BKN BKN BKN BKN BKN
FltCat VFR MVFR
  [IFR]  
MVFR VFR VFR VFR MVFR MVFR VFR VFR VFR VFR VFR VFR
WX -- --
  [TSRA BR]  
VCSH VCSH VCSH VCSH TSRA BR TSRA BR -- -- -- -- -- --
WDir 220 120
[120]
150 190 190 190 210 210 280 280 280 280 280 280
WSpd 6 10
  [10]  
10 12 12 12 14 14 12 12 12 12 12 12
WGst -- 18
  [18]  
18 20 20 20 22 22 24 24 24 24 24 24

TDA Impact Legend

  None Marginal Slight Moderate High
Visibility (sm) >5 3≤X≤5 1≤X<3 0.5≤X<1 <0.5
Ceiling (100 ft) >30 10≤X≤30 4≤X<10 2≤X<4 <2
Wind Speed (kt) <15 15≤X<25 25≤X<30 ≥30
Wind Gust (kt) <15 15≤X<25 25≤X<35 ≥35
Weather No Wx Reported VCTS -TS,-FZRA TS,FZRA +TS,+FZRA
TAF
KPHL 261509Z 2615/2718 12010G18KT P6SM SCT006 BKN015
  TEMPO 2615/2617 4SM TSRA BR BKN006 OVC015CB
  FM261700 15010G18KT P6SM VCSH OVC015
  FM261800 19012G20KT P6SM VCSH SCT015 BKN035
  FM262100 21014G22KT 4SM TSRA BR OVC020CB
  FM262300 28012G24KT P6SM BKN035
  FM271200 28017G27KT P6SM SCT050


METAR
KPHL 261516Z 22006KT 10SM SCT010 SCT017 BKN075 OVC130 18/16 A2958 RMK AO2 LTG DSNT NE-S RAE11 TSE01 P0002 T01780156
KPHL 261511Z 22006KT 9SM SCT010 SCT017 BKN075 OVC130 17/16 A2957 RMK AO2 LTG DSNT NE-S RAE11 TSE01 P0002 T01720156
KPHL 261502Z 11012G20KT 7SM -RA SCT010 BKN017 BKN075 OVC130 17/16 A2956 RMK AO2 LTG DSNT ALQDS TSE01 PRESFR P0001 T01670156
KPHL 261454Z 15010KT 6SM -TSRA BR SCT007 BKN014 BKN055CB OVC130 16/14 A2961 RMK AO2 LTG DSNT N-E RAB23 TSB19 SLP027 OCNL LTGICCG VC E-VC SE TS VC E-VC SE MOV NE P0010 60010 T01610144 56027
KPHL 261445Z 13007KT 5SM -TSRA BR SCT006 BKN012 BKN055CB OVC130 16/15 A2964 RMK AO2 LTG DSNT ALQDS RAB23 TSB19 OCNL LTGICCG VC NE-VC E TS VC NE-VC E MOV NE P0009 T01610150
KPHL 261438Z VRB03KT 3SM R09R/4000VP6000FT -TSRA BR BKN006 BKN015 OVC065CB 16/15 A2964 RMK AO2 LTG DSNT S AND NW RAB23 TSB19 OCNL LTGICCG VC NE TS VC NE MOV NE P0009 T01610150
KPHL 261435Z 00000KT 3SM R09R/4000VP6000FT -TSRA BR BKN007 BKN065CB OVC120 16/15 A2963 RMK AO2 LTG DSNT SE AND S AND NW RAB23 TSB19 OCNL LTGICCG OHD TS OHD MOV NE P0008 T01610150
KPHL 261425Z 30004KT 2SM R09R/5500VP6000FT -TSRA BR BKN007 BKN065CB OVC120 16/14 A2965 RMK AO2 LTG DSNT SE-W RAB23 TSB19 OCNL LTGICCG OHD TS OHD MOV NE P0000 T01560144
KPHL 261423Z VRB03KT 7SM R09R/5500VP6000FT -TSRA BKN007 BKN065CB OVC120 16/14 A2965 RMK AO2 LTG DSNT SE-W RAB23 TSB19 PRESRR OCNL LTGICCG OHD TS OHD MOV NE P0000 T01610144
KPHL 261419Z 12003KT 7SM TS BKN006 BKN065CB OVC120 16/14 A2964 RMK AO2 LTG DSNT S-W TSB19 PRESRR OCNL LTGICCG VC SW-VC W TS VC SW-VC W MOV NE T01610144
KPHL 261400Z 08005KT 8SM BKN005 BKN055 OVC100 16/14 A2961 RMK AO2 LTG DSNT S AND SW T01560144
KPHL 261354Z VRB05KT 8SM OVC004 16/14 A2961 RMK AO2 LTG DSNT SW RAB03E14B40E54 PRESFR SLP027 P0000 T01560144
KPHL 261349Z 36004KT 6SM -RA BR OVC004 15/14 A2962 RMK AO2 RAB03E14B40 P0000
KPHL 261341Z 00000KT 7SM -RA OVC004 14/14 A2964 RMK AO2 LTG DSNT NW RAB03E14B40 P0000 T01440144
KPHL 261254Z 05005KT 8SM OVC005 14/13 A2966 RMK AO2 RAB25E33 SLP044 P0000 T01440133 $
KPHL 261248Z 05006KT 8SM OVC005 14/13 A2966 RMK AO2 RAB25E33 PRESFR P0000 $

Radar Display
Forecast Discussion